Aérodrome :
LOGIN :

S'inscrire | Disclaimer

   EN    FR    IT 

 










Légende :    VFR   VFR Marginal   IFR   IFR Intensif   IFR Très Intensif
Visi : 
Plafond : 
>= 8 km
>= 3000ft
5 à 8 km
1000 à 3000 ft
1500m à 5 km
500 à 1000 ft
800 à 1500m
200 à 500 ft
< 800m
< 200 ft
Symboles :   Orages  Brouillard  Fortes neiges  Fortes précipitations  Vent > 20 kt
SIGMETs :   Divers  Orages  Givrage  Turbulence  Onde Orograph.  Cendres Volcan.







- Altitude de l'aérodrome : 1475 ft


LSZC - Buochs Stans

DERNIER METAR :
  • 241850Z AUTO 28004KT 240V320 9999 NCD 19/09 Q1013

METARs EXPIRÉS :
  • 241820Z AUTO 36004KT 320V040 9999 SCT070 20/08 Q1013
  • 241750Z AUTO 35005KT 9999 FEW070 21/07 Q1013
  • 241720Z AUTO 35004KT 9999 NCD 21/08 Q1013
  • 241650Z AUTO 03004KT 350V060 CAVOK 22/07 Q1013
  • 241620Z AUTO 07005KT 010V130 9999 NSC 22/07 Q1013
  • 241550Z AUTO 06003KT 010V120 9999 OVC070 23/06 Q1014

TAF TAF LSZC
Valide du 24 à 15h jusqu'au 25 à 00h UTC


241425Z 2415/2424 02006KT 9999 FEW070 SCT220
TEMPO 2415/2420 FEW070TCU
PROB30
TEMPO 2415/2419 SHRA
PROB40 2420/2424 CAVOK
Pas de NOTAMs connus pour ce terrain.



MET'MAP, la Météo Aéronautique d'un coup d'oeil ! - Copyright ORBIFLY Décembre 2007 - Disclaimer

ORBIFLY MET'MAP TEAM :

Programmation & Développement : Alexandra Zaïnal
Conception & Développement : Baudouin d'Aumeries
Co-Programmation & Développement : Marc-Olivier Méhu
Soutien technique & logistique : Manuel Goepfert

Contact : metmap@orbifly.com




SOURCES & CREDITS :

   NOAA